sensor_id;sensor_type;location;lat;lon;timestamp;temperature;humidity
16477;DHT22;8349;50.928;6.376;2023-02-10T18:19:03;6.80;99.90
16477;DHT22;8349;50.928;6.376;2023-02-10T18:21:29;6.60;99.90
16477;DHT22;8349;50.928;6.376;2023-02-10T18:23:56;6.40;99.90
16477;DHT22;8349;50.928;6.376;2023-02-10T18:26:23;6.40;99.90
16477;DHT22;8349;50.928;6.376;2023-02-10T18:28:50;6.30;99.90
16477;DHT22;8349;50.928;6.376;2023-02-10T18:31:17;6.30;99.90
16477;DHT22;8349;50.928;6.376;2023-02-10T18:33:43;6.30;99.90
16477;DHT22;8349;50.928;6.376;2023-02-10T18:36:13;6.20;99.90
16477;DHT22;8349;50.928;6.376;2023-02-10T18:38:40;6.20;99.90
16477;DHT22;8349;50.928;6.376;2023-02-10T18:41:07;6.20;99.90
16477;DHT22;8349;50.928;6.376;2023-02-10T18:43:34;6.30;99.90
16477;DHT22;8349;50.928;6.376;2023-02-10T18:46:01;6.30;99.90
16477;DHT22;8349;50.928;6.376;2023-02-10T18:48:27;6.30;99.90
16477;DHT22;8349;50.928;6.376;2023-02-10T18:50:54;6.30;99.90
16477;DHT22;8349;50.928;6.376;2023-02-10T18:53:22;6.30;99.90
16477;DHT22;8349;50.928;6.376;2023-02-10T18:55:51;6.30;99.90
16477;DHT22;8349;50.928;6.376;2023-02-10T18:58:17;6.20;99.90
16477;DHT22;8349;50.928;6.376;2023-02-10T19:00:44;6.10;99.90
16477;DHT22;8349;50.928;6.376;2023-02-10T19:03:11;6.10;99.90
16477;DHT22;8349;50.928;6.376;2023-02-10T19:05:38;6.20;99.90
16477;DHT22;8349;50.928;6.376;2023-02-10T19:08:05;6.10;99.90
16477;DHT22;8349;50.928;6.376;2023-02-10T19:10:33;6.20;99.90
16477;DHT22;8349;50.928;6.376;2023-02-10T19:13:00;6.20;99.90
16477;DHT22;8349;50.928;6.376;2023-02-10T19:15:27;6.20;99.90
16477;DHT22;8349;50.928;6.376;2023-02-10T19:17:54;6.20;99.90
16477;DHT22;8349;50.928;6.376;2023-02-10T19:20:20;6.20;99.90
16477;DHT22;8349;50.928;6.376;2023-02-10T19:22:47;6.20;99.90
16477;DHT22;8349;50.928;6.376;2023-02-10T19:25:14;6.20;99.90
16477;DHT22;8349;50.928;6.376;2023-02-10T19:27:43;6.20;99.90
16477;DHT22;8349;50.928;6.376;2023-02-10T19:30:10;6.20;99.90
16477;DHT22;8349;50.928;6.376;2023-02-10T19:32:37;6.20;99.90
16477;DHT22;8349;50.928;6.376;2023-02-10T19:35:04;6.30;99.90
16477;DHT22;8349;50.928;6.376;2023-02-10T19:37:30;6.20;99.90
16477;DHT22;8349;50.928;6.376;2023-02-10T19:39:59;6.30;99.90
16477;DHT22;8349;50.928;6.376;2023-02-10T19:42:25;6.30;99.90
16477;DHT22;8349;50.928;6.376;2023-02-10T19:44:54;6.30;99.90
16477;DHT22;8349;50.928;6.376;2023-02-10T19:47:20;6.30;99.90
16477;DHT22;8349;50.928;6.376;2023-02-10T19:49:47;6.30;99.90
16477;DHT22;8349;50.928;6.376;2023-02-10T19:52:14;6.30;99.90
16477;DHT22;8349;50.928;6.376;2023-02-10T19:54:41;6.30;99.90
16477;DHT22;8349;50.928;6.376;2023-02-10T19:57:07;6.30;99.90
16477;DHT22;8349;50.928;6.376;2023-02-10T19:59:34;6.40;99.90
16477;DHT22;8349;50.928;6.376;2023-02-10T20:02:02;6.40;99.90
16477;DHT22;8349;50.928;6.376;2023-02-10T20:04:29;6.40;99.90
16477;DHT22;8349;50.928;6.376;2023-02-10T20:06:56;6.40;99.90
16477;DHT22;8349;50.928;6.376;2023-02-10T20:09:22;6.30;99.90
16477;DHT22;8349;50.928;6.376;2023-02-10T20:11:49;6.30;99.90
16477;DHT22;8349;50.928;6.376;2023-02-10T20:14:16;6.30;99.90
16477;DHT22;8349;50.928;6.376;2023-02-10T20:16:43;6.30;99.90
16477;DHT22;8349;50.928;6.376;2023-02-10T20:19:12;6.20;99.90
16477;DHT22;8349;50.928;6.376;2023-02-10T20:21:40;6.30;99.90
16477;DHT22;8349;50.928;6.376;2023-02-10T20:24:07;6.30;99.90
16477;DHT22;8349;50.928;6.376;2023-02-10T20:26:34;6.30;99.90
16477;DHT22;8349;50.928;6.376;2023-02-10T20:29:01;6.30;99.90
16477;DHT22;8349;50.928;6.376;2023-02-10T20:31:28;6.30;99.90
16477;DHT22;8349;50.928;6.376;2023-02-10T20:33:54;6.30;99.90
16477;DHT22;8349;50.928;6.376;2023-02-10T20:36:22;6.30;99.90
16477;DHT22;8349;50.928;6.376;2023-02-10T20:38:49;6.30;99.90
16477;DHT22;8349;50.928;6.376;2023-02-10T20:41:17;6.30;99.90
16477;DHT22;8349;50.928;6.376;2023-02-10T20:43:44;6.30;99.90
16477;DHT22;8349;50.928;6.376;2023-02-10T20:46:11;6.40;99.90
16477;DHT22;8349;50.928;6.376;2023-02-10T20:48:38;6.40;99.90
16477;DHT22;8349;50.928;6.376;2023-02-10T20:51:06;6.40;99.90
16477;DHT22;8349;50.928;6.376;2023-02-10T20:53:34;6.40;99.90
16477;DHT22;8349;50.928;6.376;2023-02-10T20:56:02;6.40;99.90
16477;DHT22;8349;50.928;6.376;2023-02-10T20:58:29;6.50;99.90
16477;DHT22;8349;50.928;6.376;2023-02-10T21:00:56;6.50;99.90
16477;DHT22;8349;50.928;6.376;2023-02-10T21:03:23;6.60;99.90
16477;DHT22;8349;50.928;6.376;2023-02-10T21:05:50;6.60;99.90
16477;DHT22;8349;50.928;6.376;2023-02-10T21:08:17;6.70;99.90
16477;DHT22;8349;50.928;6.376;2023-02-10T21:10:45;6.70;99.90
16477;DHT22;8349;50.928;6.376;2023-02-10T21:13:12;6.70;99.90
16477;DHT22;8349;50.928;6.376;2023-02-10T21:15:40;6.70;99.90
16477;DHT22;8349;50.928;6.376;2023-02-10T21:18:07;6.70;99.90
16477;DHT22;8349;50.928;6.376;2023-02-10T21:20:34;6.80;99.90
16477;DHT22;8349;50.928;6.376;2023-02-10T21:23:00;6.70;99.90
16477;DHT22;8349;50.928;6.376;2023-02-10T21:25:27;6.80;99.90
16477;DHT22;8349;50.928;6.376;2023-02-10T21:27:55;6.70;99.90
16477;DHT22;8349;50.928;6.376;2023-02-10T21:30:22;6.70;99.90
16477;DHT22;8349;50.928;6.376;2023-02-10T21:32:50;6.70;99.90
16477;DHT22;8349;50.928;6.376;2023-02-10T21:35:16;6.70;99.90
16477;DHT22;8349;50.928;6.376;2023-02-10T21:37:43;6.80;99.90
16477;DHT22;8349;50.928;6.376;2023-02-10T21:40:10;6.70;99.90
16477;DHT22;8349;50.928;6.376;2023-02-10T21:42:37;6.70;99.90
16477;DHT22;8349;50.928;6.376;2023-02-10T21:45:05;6.70;99.90
16477;DHT22;8349;50.928;6.376;2023-02-10T21:47:32;6.70;99.90
16477;DHT22;8349;50.928;6.376;2023-02-10T21:49:59;6.70;99.90
16477;DHT22;8349;50.928;6.376;2023-02-10T21:52:25;6.70;99.90
16477;DHT22;8349;50.928;6.376;2023-02-10T21:54:52;6.70;99.90
16477;DHT22;8349;50.928;6.376;2023-02-10T21:57:19;6.60;99.90
16477;DHT22;8349;50.928;6.376;2023-02-10T21:59:46;6.70;99.90
